sensor_id;sensor_type;location;lat;lon;timestamp;temperature;humidity
16408;DHT22;8313;49.894;8.084;2024-03-02T00:00:21;6.60;99.90
16408;DHT22;8313;49.894;8.084;2024-03-02T00:02:49;6.70;99.90
16408;DHT22;8313;49.894;8.084;2024-03-02T00:05:19;6.70;99.90
16408;DHT22;8313;49.894;8.084;2024-03-02T00:10:25;6.70;99.90
16408;DHT22;8313;49.894;8.084;2024-03-02T00:12:55;6.50;99.90
16408;DHT22;8313;49.894;8.084;2024-03-02T00:17:54;6.60;99.90
16408;DHT22;8313;49.894;8.084;2024-03-02T00:20:22;6.70;99.90
16408;DHT22;8313;49.894;8.084;2024-03-02T00:22:51;6.60;99.90
16408;DHT22;8313;49.894;8.084;2024-03-02T00:25:19;6.60;99.90
16408;DHT22;8313;49.894;8.084;2024-03-02T00:27:48;6.60;99.90
16408;DHT22;8313;49.894;8.084;2024-03-02T00:33:12;6.50;99.90
16408;DHT22;8313;49.894;8.084;2024-03-02T00:35:37;6.50;99.90
16408;DHT22;8313;49.894;8.084;2024-03-02T00:38:04;6.50;99.90
16408;DHT22;8313;49.894;8.084;2024-03-02T00:40:31;6.50;99.90
16408;DHT22;8313;49.894;8.084;2024-03-02T00:42:57;6.50;99.90
16408;DHT22;8313;49.894;8.084;2024-03-02T00:45:23;6.40;99.90
16408;DHT22;8313;49.894;8.084;2024-03-02T00:47:50;6.50;99.90
16408;DHT22;8313;49.894;8.084;2024-03-02T00:50:16;6.50;99.90
16408;DHT22;8313;49.894;8.084;2024-03-02T00:52:42;6.50;99.90
16408;DHT22;8313;49.894;8.084;2024-03-02T00:55:08;6.40;99.90
16408;DHT22;8313;49.894;8.084;2024-03-02T00:57:34;6.40;99.90
16408;DHT22;8313;49.894;8.084;2024-03-02T01:00:00;6.40;99.90
16408;DHT22;8313;49.894;8.084;2024-03-02T01:02:26;6.40;99.90
16408;DHT22;8313;49.894;8.084;2024-03-02T01:04:53;6.40;99.90
16408;DHT22;8313;49.894;8.084;2024-03-02T01:07:18;6.40;99.90
16408;DHT22;8313;49.894;8.084;2024-03-02T01:09:44;6.40;99.90
16408;DHT22;8313;49.894;8.084;2024-03-02T01:12:10;6.40;99.90
16408;DHT22;8313;49.894;8.084;2024-03-02T01:14:36;6.40;99.90
16408;DHT22;8313;49.894;8.084;2024-03-02T01:17:01;6.40;99.90
16408;DHT22;8313;49.894;8.084;2024-03-02T01:19:30;6.40;99.90
16408;DHT22;8313;49.894;8.084;2024-03-02T01:21:56;6.40;99.90
16408;DHT22;8313;49.894;8.084;2024-03-02T01:24:22;6.40;99.90
16408;DHT22;8313;49.894;8.084;2024-03-02T01:26:47;6.40;99.90
16408;DHT22;8313;49.894;8.084;2024-03-02T01:29:13;6.40;99.90
16408;DHT22;8313;49.894;8.084;2024-03-02T01:31:39;6.40;99.90
16408;DHT22;8313;49.894;8.084;2024-03-02T01:34:08;6.40;99.90
16408;DHT22;8313;49.894;8.084;2024-03-02T01:36:34;6.40;99.90
16408;DHT22;8313;49.894;8.084;2024-03-02T01:38:59;6.40;99.90
16408;DHT22;8313;49.894;8.084;2024-03-02T01:41:25;6.40;99.90
16408;DHT22;8313;49.894;8.084;2024-03-02T01:43:51;6.40;99.90
16408;DHT22;8313;49.894;8.084;2024-03-02T01:46:16;6.30;99.90
16408;DHT22;8313;49.894;8.084;2024-03-02T01:48:42;6.30;99.90
16408;DHT22;8313;49.894;8.084;2024-03-02T01:51:08;6.30;99.90
16408;DHT22;8313;49.894;8.084;2024-03-02T01:53:34;6.30;99.90
16408;DHT22;8313;49.894;8.084;2024-03-02T01:56:00;6.30;99.90
16408;DHT22;8313;49.894;8.084;2024-03-02T01:58:27;6.30;99.90
16408;DHT22;8313;49.894;8.084;2024-03-02T02:00:52;6.30;99.90
16408;DHT22;8313;49.894;8.084;2024-03-02T02:03:18;6.20;99.90
16408;DHT22;8313;49.894;8.084;2024-03-02T02:05:44;6.30;99.90
16408;DHT22;8313;49.894;8.084;2024-03-02T02:08:10;6.30;99.90
16408;DHT22;8313;49.894;8.084;2024-03-02T02:10:36;6.20;99.90
16408;DHT22;8313;49.894;8.084;2024-03-02T02:13:02;6.20;99.90
16408;DHT22;8313;49.894;8.084;2024-03-02T02:15:29;6.20;99.90
16408;DHT22;8313;49.894;8.084;2024-03-02T02:17:56;6.20;99.90
16408;DHT22;8313;49.894;8.084;2024-03-02T02:20:23;6.20;99.90
16408;DHT22;8313;49.894;8.084;2024-03-02T02:25:27;6.10;99.90
16408;DHT22;8313;49.894;8.084;2024-03-02T02:27:54;6.10;99.90
16408;DHT22;8313;49.894;8.084;2024-03-02T02:30:26;6.10;99.90
16408;DHT22;8313;49.894;8.084;2024-03-02T02:32:52;6.10;99.90
16408;DHT22;8313;49.894;8.084;2024-03-02T02:35:17;6.10;99.90
16408;DHT22;8313;49.894;8.084;2024-03-02T02:37:45;6.10;99.90
16408;DHT22;8313;49.894;8.084;2024-03-02T02:40:11;6.10;99.90
16408;DHT22;8313;49.894;8.084;2024-03-02T02:42:38;6.10;99.90
16408;DHT22;8313;49.894;8.084;2024-03-02T02:45:05;6.10;99.90
16408;DHT22;8313;49.894;8.084;2024-03-02T02:47:31;6.10;99.90
16408;DHT22;8313;49.894;8.084;2024-03-02T02:49:59;6.00;99.90
16408;DHT22;8313;49.894;8.084;2024-03-02T02:52:24;6.00;99.90
16408;DHT22;8313;49.894;8.084;2024-03-02T02:54:50;6.00;99.90
16408;DHT22;8313;49.894;8.084;2024-03-02T02:57:16;6.00;99.90
16408;DHT22;8313;49.894;8.084;2024-03-02T02:59:42;5.90;99.90
16408;DHT22;8313;49.894;8.084;2024-03-02T03:02:08;5.90;99.90
16408;DHT22;8313;49.894;8.084;2024-03-02T03:04:33;5.80;99.90
16408;DHT22;8313;49.894;8.084;2024-03-02T03:06:59;5.90;99.90
16408;DHT22;8313;49.894;8.084;2024-03-02T03:09:24;5.80;99.90
16408;DHT22;8313;49.894;8.084;2024-03-02T03:11:50;5.80;99.90
16408;DHT22;8313;49.894;8.084;2024-03-02T03:14:16;5.80;99.90
16408;DHT22;8313;49.894;8.084;2024-03-02T03:16:42;5.70;99.90
16408;DHT22;8313;49.894;8.084;2024-03-02T03:19:07;5.70;99.90
16408;DHT22;8313;49.894;8.084;2024-03-02T03:21:34;5.70;99.90
16408;DHT22;8313;49.894;8.084;2024-03-02T03:23:59;5.70;99.90
16408;DHT22;8313;49.894;8.084;2024-03-02T03:26:25;5.70;99.90
16408;DHT22;8313;49.894;8.084;2024-03-02T03:28:50;5.70;99.90
16408;DHT22;8313;49.894;8.084;2024-03-02T03:31:16;5.50;99.90
16408;DHT22;8313;49.894;8.084;2024-03-02T03:33:42;5.50;99.90
16408;DHT22;8313;49.894;8.084;2024-03-02T03:36:07;5.50;99.90
16408;DHT22;8313;49.894;8.084;2024-03-02T03:38:33;5.50;99.90
16408;DHT22;8313;49.894;8.084;2024-03-02T03:40:58;5.50;99.90
16408;DHT22;8313;49.894;8.084;2024-03-02T03:43:24;5.50;99.90
16408;DHT22;8313;49.894;8.084;2024-03-02T03:45:50;5.40;99.90
16408;DHT22;8313;49.894;8.084;2024-03-02T03:48:15;5.50;99.90
16408;DHT22;8313;49.894;8.084;2024-03-02T03:50:41;5.50;99.90
16408;DHT22;8313;49.894;8.084;2024-03-02T03:53:07;5.20;99.90
16408;DHT22;8313;49.894;8.084;2024-03-02T03:55:32;5.20;99.90
16408;DHT22;8313;49.894;8.084;2024-03-02T03:57:58;5.30;99.90
16408;DHT22;8313;49.894;8.084;2024-03-02T04:00:24;5.40;99.90
16408;DHT22;8313;49.894;8.084;2024-03-02T04:02:49;5.40;99.90
16408;DHT22;8313;49.894;8.084;2024-03-02T04:05:15;5.50;99.90
16408;DHT22;8313;49.894;8.084;2024-03-02T04:07:41;5.50;99.90
16408;DHT22;8313;49.894;8.084;2024-03-02T04:10:09;5.50;99.90
16408;DHT22;8313;49.894;8.084;2024-03-02T04:12:36;5.40;99.90
16408;DHT22;8313;49.894;8.084;2024-03-02T04:15:03;5.40;99.90
16408;DHT22;8313;49.894;8.084;2024-03-02T04:17:31;5.40;99.90
16408;DHT22;8313;49.894;8.084;2024-03-02T04:19:57;5.40;99.90
16408;DHT22;8313;49.894;8.084;2024-03-02T04:22:23;5.40;99.90
16408;DHT22;8313;49.894;8.084;2024-03-02T04:24:48;5.40;99.90
16408;DHT22;8313;49.894;8.084;2024-03-02T04:27:14;5.40;99.90
16408;DHT22;8313;49.894;8.084;2024-03-02T04:29:39;5.40;99.90
16408;DHT22;8313;49.894;8.084;2024-03-02T04:32:05;5.40;99.90
16408;DHT22;8313;49.894;8.084;2024-03-02T04:34:31;5.30;99.90
16408;DHT22;8313;49.894;8.084;2024-03-02T04:36:56;5.20;99.90
16408;DHT22;8313;49.894;8.084;2024-03-02T04:39:22;5.20;99.90
16408;DHT22;8313;49.894;8.084;2024-03-02T04:41:48;5.20;99.90
16408;DHT22;8313;49.894;8.084;2024-03-02T04:44:13;5.20;99.90
16408;DHT22;8313;49.894;8.084;2024-03-02T04:46:39;5.20;99.90
16408;DHT22;8313;49.894;8.084;2024-03-02T04:49:05;5.10;99.90
16408;DHT22;8313;49.894;8.084;2024-03-02T04:51:30;5.00;99.90
16408;DHT22;8313;49.894;8.084;2024-03-02T04:53:56;5.00;99.90
16408;DHT22;8313;49.894;8.084;2024-03-02T04:56:21;5.00;99.90
16408;DHT22;8313;49.894;8.084;2024-03-02T04:59:06;5.10;99.90
16408;DHT22;8313;49.894;8.084;2024-03-02T05:01:32;5.10;99.90
16408;DHT22;8313;49.894;8.084;2024-03-02T05:03:59;5.10;99.90
16408;DHT22;8313;49.894;8.084;2024-03-02T05:06:24;5.10;99.90
16408;DHT22;8313;49.894;8.084;2024-03-02T05:08:50;5.10;99.90
16408;DHT22;8313;49.894;8.084;2024-03-02T05:11:15;5.10;99.90
16408;DHT22;8313;49.894;8.084;2024-03-02T05:13:59;5.00;99.90
16408;DHT22;8313;49.894;8.084;2024-03-02T05:16:25;5.00;99.90
16408;DHT22;8313;49.894;8.084;2024-03-02T05:18:51;5.00;99.90
16408;DHT22;8313;49.894;8.084;2024-03-02T05:21:16;5.00;99.90
16408;DHT22;8313;49.894;8.084;2024-03-02T05:23:42;5.00;99.90
16408;DHT22;8313;49.894;8.084;2024-03-02T05:26:07;5.00;99.90
16408;DHT22;8313;49.894;8.084;2024-03-02T05:28:33;5.00;99.90
16408;DHT22;8313;49.894;8.084;2024-03-02T05:30:59;4.90;99.90
16408;DHT22;8313;49.894;8.084;2024-03-02T05:33:24;4.80;99.90
16408;DHT22;8313;49.894;8.084;2024-03-02T05:35:50;4.70;99.90
16408;DHT22;8313;49.894;8.084;2024-03-02T05:38:16;4.80;99.90
16408;DHT22;8313;49.894;8.084;2024-03-02T05:40:41;4.90;99.90
16408;DHT22;8313;49.894;8.084;2024-03-02T05:43:07;4.90;99.90
16408;DHT22;8313;49.894;8.084;2024-03-02T05:45:33;5.00;99.90
16408;DHT22;8313;49.894;8.084;2024-03-02T05:47:58;5.00;99.90
16408;DHT22;8313;49.894;8.084;2024-03-02T05:50:24;5.10;99.90
16408;DHT22;8313;49.894;8.084;2024-03-02T05:52:50;5.10;99.90
16408;DHT22;8313;49.894;8.084;2024-03-02T05:55:15;5.10;99.90
16408;DHT22;8313;49.894;8.084;2024-03-02T05:57:41;5.10;99.90
16408;DHT22;8313;49.894;8.084;2024-03-02T06:00:10;5.10;99.90
16408;DHT22;8313;49.894;8.084;2024-03-02T06:02:39;5.10;99.90
16408;DHT22;8313;49.894;8.084;2024-03-02T06:05:06;5.00;99.90
16408;DHT22;8313;49.894;8.084;2024-03-02T06:07:32;5.00;99.90
16408;DHT22;8313;49.894;8.084;2024-03-02T06:09:58;5.00;99.90
16408;DHT22;8313;49.894;8.084;2024-03-02T06:12:24;5.00;99.90
16408;DHT22;8313;49.894;8.084;2024-03-02T06:14:49;5.10;99.90
16408;DHT22;8313;49.894;8.084;2024-03-02T06:17:15;5.10;99.90
16408;DHT22;8313;49.894;8.084;2024-03-02T06:19:41;5.10;99.90
16408;DHT22;8313;49.894;8.084;2024-03-02T06:22:06;5.10;99.90
16408;DHT22;8313;49.894;8.084;2024-03-02T06:24:36;5.10;99.90
16408;DHT22;8313;49.894;8.084;2024-03-02T06:27:02;5.10;99.90
16408;DHT22;8313;49.894;8.084;2024-03-02T06:29:27;5.10;99.90
16408;DHT22;8313;49.894;8.084;2024-03-02T06:31:53;5.20;99.90
16408;DHT22;8313;49.894;8.084;2024-03-02T06:34:19;5.20;99.90
16408;DHT22;8313;49.894;8.084;2024-03-02T06:36:44;5.20;99.90
16408;DHT22;8313;49.894;8.084;2024-03-02T06:39:10;5.20;99.90
16408;DHT22;8313;49.894;8.084;2024-03-02T06:41:37;5.20;99.90
16408;DHT22;8313;49.894;8.084;2024-03-02T06:44:03;5.20;99.90
16408;DHT22;8313;49.894;8.084;2024-03-02T06:46:29;5.20;99.90
16408;DHT22;8313;49.894;8.084;2024-03-02T06:48:55;5.20;99.90
16408;DHT22;8313;49.894;8.084;2024-03-02T06:51:20;5.20;99.90
16408;DHT22;8313;49.894;8.084;2024-03-02T06:53:46;5.20;99.90
16408;DHT22;8313;49.894;8.084;2024-03-02T06:56:12;5.20;99.90
16408;DHT22;8313;49.894;8.084;2024-03-02T06:58:37;5.20;99.90
16408;DHT22;8313;49.894;8.084;2024-03-02T07:01:03;5.20;99.90
16408;DHT22;8313;49.894;8.084;2024-03-02T07:03:29;5.20;99.90
16408;DHT22;8313;49.894;8.084;2024-03-02T07:05:54;5.30;99.90
16408;DHT22;8313;49.894;8.084;2024-03-02T07:08:20;5.30;99.90
16408;DHT22;8313;49.894;8.084;2024-03-02T07:10:46;5.20;99.90
16408;DHT22;8313;49.894;8.084;2024-03-02T07:13:12;5.20;99.90
16408;DHT22;8313;49.894;8.084;2024-03-02T07:15:38;5.20;99.90
16408;DHT22;8313;49.894;8.084;2024-03-02T07:18:22;5.30;99.90
16408;DHT22;8313;49.894;8.084;2024-03-02T07:20:48;5.30;99.90
16408;DHT22;8313;49.894;8.084;2024-03-02T07:23:14;5.30;99.90
16408;DHT22;8313;49.894;8.084;2024-03-02T07:25:40;5.40;99.90
16408;DHT22;8313;49.894;8.084;2024-03-02T07:28:06;5.40;99.90
16408;DHT22;8313;49.894;8.084;2024-03-02T07:30:33;5.40;99.90
16408;DHT22;8313;49.894;8.084;2024-03-02T07:32:59;5.40;99.90
16408;DHT22;8313;49.894;8.084;2024-03-02T07:35:25;5.40;99.90
16408;DHT22;8313;49.894;8.084;2024-03-02T07:37:54;5.50;99.90
16408;DHT22;8313;49.894;8.084;2024-03-02T07:40:20;5.50;99.90
16408;DHT22;8313;49.894;8.084;2024-03-02T07:42:46;5.50;99.90
16408;DHT22;8313;49.894;8.084;2024-03-02T07:45:12;5.50;99.90
16408;DHT22;8313;49.894;8.084;2024-03-02T07:47:37;5.50;99.90
16408;DHT22;8313;49.894;8.084;2024-03-02T07:50:03;5.60;99.90
16408;DHT22;8313;49.894;8.084;2024-03-02T07:52:32;5.60;99.90
16408;DHT22;8313;49.894;8.084;2024-03-02T07:54:58;5.60;99.90
16408;DHT22;8313;49.894;8.084;2024-03-02T07:57:23;5.60;99.90
16408;DHT22;8313;49.894;8.084;2024-03-02T07:59:49;5.60;99.90
16408;DHT22;8313;49.894;8.084;2024-03-02T08:02:15;5.70;99.90
16408;DHT22;8313;49.894;8.084;2024-03-02T08:04:41;5.70;99.90
16408;DHT22;8313;49.894;8.084;2024-03-02T08:07:07;5.70;99.90
16408;DHT22;8313;49.894;8.084;2024-03-02T08:09:32;5.70;99.90
16408;DHT22;8313;49.894;8.084;2024-03-02T08:11:58;5.70;99.90
16408;DHT22;8313;49.894;8.084;2024-03-02T08:14:24;5.70;99.90
16408;DHT22;8313;49.894;8.084;2024-03-02T08:16:49;5.80;99.90
16408;DHT22;8313;49.894;8.084;2024-03-02T08:19:15;5.80;99.90
16408;DHT22;8313;49.894;8.084;2024-03-02T08:21:42;5.80;99.90
16408;DHT22;8313;49.894;8.084;2024-03-02T08:24:08;5.80;99.90
16408;DHT22;8313;49.894;8.084;2024-03-02T08:26:34;5.90;99.90
16408;DHT22;8313;49.894;8.084;2024-03-02T08:29:01;5.80;99.90
16408;DHT22;8313;49.894;8.084;2024-03-02T08:31:30;5.90;99.90
16408;DHT22;8313;49.894;8.084;2024-03-02T08:33:55;5.90;99.90
16408;DHT22;8313;49.894;8.084;2024-03-02T08:36:23;6.00;99.90
16408;DHT22;8313;49.894;8.084;2024-03-02T08:38:52;6.00;99.90
16408;DHT22;8313;49.894;8.084;2024-03-02T08:41:17;6.10;99.90
16408;DHT22;8313;49.894;8.084;2024-03-02T08:43:44;6.10;99.90
16408;DHT22;8313;49.894;8.084;2024-03-02T08:46:10;6.20;99.90
16408;DHT22;8313;49.894;8.084;2024-03-02T08:48:35;6.20;99.90
16408;DHT22;8313;49.894;8.084;2024-03-02T08:51:01;6.30;99.90
16408;DHT22;8313;49.894;8.084;2024-03-02T08:53:30;6.30;99.90
16408;DHT22;8313;49.894;8.084;2024-03-02T08:55:55;6.30;99.90
16408;DHT22;8313;49.894;8.084;2024-03-02T08:58:21;6.40;99.90
16408;DHT22;8313;49.894;8.084;2024-03-02T09:00:47;6.40;99.90
16408;DHT22;8313;49.894;8.084;2024-03-02T09:03:13;6.50;99.90
16408;DHT22;8313;49.894;8.084;2024-03-02T09:05:38;6.50;99.90
16408;DHT22;8313;49.894;8.084;2024-03-02T09:08:04;6.50;99.90
16408;DHT22;8313;49.894;8.084;2024-03-02T09:10:30;6.60;99.90
16408;DHT22;8313;49.894;8.084;2024-03-02T09:12:56;6.60;99.90
16408;DHT22;8313;49.894;8.084;2024-03-02T09:15:21;6.70;99.90
16408;DHT22;8313;49.894;8.084;2024-03-02T09:17:47;6.70;99.90
16408;DHT22;8313;49.894;8.084;2024-03-02T09:20:13;6.70;99.90
16408;DHT22;8313;49.894;8.084;2024-03-02T09:22:39;6.80;99.90
16408;DHT22;8313;49.894;8.084;2024-03-02T09:25:05;6.80;99.90
16408;DHT22;8313;49.894;8.084;2024-03-02T09:27:36;6.80;99.90
16408;DHT22;8313;49.894;8.084;2024-03-02T09:30:07;6.90;99.90
16408;DHT22;8313;49.894;8.084;2024-03-02T09:32:33;6.90;99.90
16408;DHT22;8313;49.894;8.084;2024-03-02T09:34:59;7.00;99.90
16408;DHT22;8313;49.894;8.084;2024-03-02T09:37:24;7.00;99.90
16408;DHT22;8313;49.894;8.084;2024-03-02T09:39:50;7.10;99.90
16408;DHT22;8313;49.894;8.084;2024-03-02T09:42:17;7.10;99.90
16408;DHT22;8313;49.894;8.084;2024-03-02T09:44:43;7.10;99.90
16408;DHT22;8313;49.894;8.084;2024-03-02T09:47:09;7.20;99.90
16408;DHT22;8313;49.894;8.084;2024-03-02T09:49:35;7.20;99.90
16408;DHT22;8313;49.894;8.084;2024-03-02T09:52:01;7.30;99.90
16408;DHT22;8313;49.894;8.084;2024-03-02T09:54:28;7.40;99.90
16408;DHT22;8313;49.894;8.084;2024-03-02T09:56:54;7.40;99.90
16408;DHT22;8313;49.894;8.084;2024-03-02T09:59:20;7.40;99.90
16408;DHT22;8313;49.894;8.084;2024-03-02T10:01:59;7.50;99.90
16408;DHT22;8313;49.894;8.084;2024-03-02T10:04:29;7.60;99.90
16408;DHT22;8313;49.894;8.084;2024-03-02T10:09:41;7.70;99.90
16408;DHT22;8313;49.894;8.084;2024-03-02T10:12:10;7.70;99.90
16408;DHT22;8313;49.894;8.084;2024-03-02T10:14:37;7.70;99.90
16408;DHT22;8313;49.894;8.084;2024-03-02T10:17:10;7.80;99.90
16408;DHT22;8313;49.894;8.084;2024-03-02T10:19:37;7.80;99.90
16408;DHT22;8313;49.894;8.084;2024-03-02T10:22:07;7.80;99.90
16408;DHT22;8313;49.894;8.084;2024-03-02T10:27:10;8.00;99.90
16408;DHT22;8313;49.894;8.084;2024-03-02T10:29:40;8.10;99.90
16408;DHT22;8313;49.894;8.084;2024-03-02T10:32:09;8.20;99.90
16408;DHT22;8313;49.894;8.084;2024-03-02T10:34:36;8.20;99.90
16408;DHT22;8313;49.894;8.084;2024-03-02T10:37:03;8.20;99.90
16408;DHT22;8313;49.894;8.084;2024-03-02T10:39:29;8.30;99.90
16408;DHT22;8313;49.894;8.084;2024-03-02T10:41:56;8.30;99.90
16408;DHT22;8313;49.894;8.084;2024-03-02T10:44:22;8.40;99.90
16408;DHT22;8313;49.894;8.084;2024-03-02T10:46:49;8.40;99.90
16408;DHT22;8313;49.894;8.084;2024-03-02T10:49:16;8.40;99.90
16408;DHT22;8313;49.894;8.084;2024-03-02T10:51:43;8.40;99.90
16408;DHT22;8313;49.894;8.084;2024-03-02T10:54:08;8.40;99.90
16408;DHT22;8313;49.894;8.084;2024-03-02T10:56:40;8.40;99.90
16408;DHT22;8313;49.894;8.084;2024-03-02T11:01:50;8.50;99.90
16408;DHT22;8313;49.894;8.084;2024-03-02T11:04:19;8.50;99.90
16408;DHT22;8313;49.894;8.084;2024-03-02T11:06:49;8.60;99.90
16408;DHT22;8313;49.894;8.084;2024-03-02T11:09:19;8.60;99.90
16408;DHT22;8313;49.894;8.084;2024-03-02T11:11:52;8.60;99.90
16408;DHT22;8313;49.894;8.084;2024-03-02T11:14:23;8.70;99.90
16408;DHT22;8313;49.894;8.084;2024-03-02T11:16:50;8.70;99.90
16408;DHT22;8313;49.894;8.084;2024-03-02T11:19:17;8.70;99.90
16408;DHT22;8313;49.894;8.084;2024-03-02T11:21:44;8.80;99.90
16408;DHT22;8313;49.894;8.084;2024-03-02T11:24:28;8.80;99.90
16408;DHT22;8313;49.894;8.084;2024-03-02T11:27:04;8.90;99.90
16408;DHT22;8313;49.894;8.084;2024-03-02T11:32:03;9.00;99.90
16408;DHT22;8313;49.894;8.084;2024-03-02T11:34:30;9.10;99.90
16408;DHT22;8313;49.894;8.084;2024-03-02T11:36:57;9.20;99.90
16408;DHT22;8313;49.894;8.084;2024-03-02T11:39:25;9.30;99.90
16408;DHT22;8313;49.894;8.084;2024-03-02T11:41:51;9.30;99.90
16408;DHT22;8313;49.894;8.084;2024-03-02T11:44:17;9.40;99.90
16408;DHT22;8313;49.894;8.084;2024-03-02T11:46:45;9.50;99.90
16408;DHT22;8313;49.894;8.084;2024-03-02T11:49:15;9.60;99.90
16408;DHT22;8313;49.894;8.084;2024-03-02T11:52:00;9.60;99.90
16408;DHT22;8313;49.894;8.084;2024-03-02T11:54:27;9.80;99.90
16408;DHT22;8313;49.894;8.084;2024-03-02T11:56:55;9.90;99.90
16408;DHT22;8313;49.894;8.084;2024-03-02T11:59:22;9.90;99.90
16408;DHT22;8313;49.894;8.084;2024-03-02T12:01:49;10.00;99.90
16408;DHT22;8313;49.894;8.084;2024-03-02T12:04:15;10.10;99.90
16408;DHT22;8313;49.894;8.084;2024-03-02T12:06:41;10.20;99.90
16408;DHT22;8313;49.894;8.084;2024-03-02T12:09:09;10.30;99.90
16408;DHT22;8313;49.894;8.084;2024-03-02T12:11:37;10.50;99.90
16408;DHT22;8313;49.894;8.084;2024-03-02T12:14:03;10.50;99.90
16408;DHT22;8313;49.894;8.084;2024-03-02T12:16:30;10.60;99.90
16408;DHT22;8313;49.894;8.084;2024-03-02T12:18:55;10.60;99.90
16408;DHT22;8313;49.894;8.084;2024-03-02T12:21:21;10.50;99.90
16408;DHT22;8313;49.894;8.084;2024-03-02T12:23:47;10.50;99.90
16408;DHT22;8313;49.894;8.084;2024-03-02T12:26:12;10.60;99.90
16408;DHT22;8313;49.894;8.084;2024-03-02T12:28:38;10.80;99.90
16408;DHT22;8313;49.894;8.084;2024-03-02T12:31:04;11.00;99.90
16408;DHT22;8313;49.894;8.084;2024-03-02T12:33:29;11.10;99.90
16408;DHT22;8313;49.894;8.084;2024-03-02T12:35:57;11.30;99.90
16408;DHT22;8313;49.894;8.084;2024-03-02T12:38:23;11.40;99.90
16408;DHT22;8313;49.894;8.084;2024-03-02T12:40:51;11.30;99.90
16408;DHT22;8313;49.894;8.084;2024-03-02T12:43:18;11.60;99.90
16408;DHT22;8313;49.894;8.084;2024-03-02T12:45:43;11.80;99.90
16408;DHT22;8313;49.894;8.084;2024-03-02T12:48:09;12.00;99.90
16408;DHT22;8313;49.894;8.084;2024-03-02T12:50:35;12.00;99.90
16408;DHT22;8313;49.894;8.084;2024-03-02T12:53:01;11.80;99.90
16408;DHT22;8313;49.894;8.084;2024-03-02T12:55:27;11.50;99.90
16408;DHT22;8313;49.894;8.084;2024-03-02T12:57:54;11.60;99.90
16408;DHT22;8313;49.894;8.084;2024-03-02T13:00:20;11.60;99.90
16408;DHT22;8313;49.894;8.084;2024-03-02T13:02:47;11.50;99.90
16408;DHT22;8313;49.894;8.084;2024-03-02T13:05:13;11.60;99.90
16408;DHT22;8313;49.894;8.084;2024-03-02T13:07:39;11.80;99.90
16408;DHT22;8313;49.894;8.084;2024-03-02T13:10:07;12.10;99.90
16408;DHT22;8313;49.894;8.084;2024-03-02T13:12:36;12.00;99.90
16408;DHT22;8313;49.894;8.084;2024-03-02T13:15:03;12.00;99.90
16408;DHT22;8313;49.894;8.084;2024-03-02T13:17:29;12.20;99.90
16408;DHT22;8313;49.894;8.084;2024-03-02T13:19:59;12.40;99.90
16408;DHT22;8313;49.894;8.084;2024-03-02T13:22:25;12.40;99.90
16408;DHT22;8313;49.894;8.084;2024-03-02T13:24:52;12.50;99.90
16408;DHT22;8313;49.894;8.084;2024-03-02T13:27:19;12.50;99.90
16408;DHT22;8313;49.894;8.084;2024-03-02T13:29:47;12.50;99.90
16408;DHT22;8313;49.894;8.084;2024-03-02T13:32:14;12.50;99.90
16408;DHT22;8313;49.894;8.084;2024-03-02T13:34:40;12.70;99.90
16408;DHT22;8313;49.894;8.084;2024-03-02T13:37:06;13.10;99.90
16408;DHT22;8313;49.894;8.084;2024-03-02T13:39:32;13.20;99.90
16408;DHT22;8313;49.894;8.084;2024-03-02T13:41:58;13.30;99.90
16408;DHT22;8313;49.894;8.084;2024-03-02T13:44:31;13.50;99.90
16408;DHT22;8313;49.894;8.084;2024-03-02T13:46:57;13.40;99.90
16408;DHT22;8313;49.894;8.084;2024-03-02T13:49:24;13.40;99.90
16408;DHT22;8313;49.894;8.084;2024-03-02T13:51:49;13.50;99.90
16408;DHT22;8313;49.894;8.084;2024-03-02T13:54:15;13.40;99.90
16408;DHT22;8313;49.894;8.084;2024-03-02T13:56:41;13.60;99.90
16408;DHT22;8313;49.894;8.084;2024-03-02T13:59:07;13.60;99.90
16408;DHT22;8313;49.894;8.084;2024-03-02T14:01:33;13.70;99.90
16408;DHT22;8313;49.894;8.084;2024-03-02T14:03:59;13.70;99.90
16408;DHT22;8313;49.894;8.084;2024-03-02T14:06:25;14.00;99.90
16408;DHT22;8313;49.894;8.084;2024-03-02T14:08:53;13.90;99.90
16408;DHT22;8313;49.894;8.084;2024-03-02T14:11:19;14.00;99.90
16408;DHT22;8313;49.894;8.084;2024-03-02T14:13:45;13.90;99.90
16408;DHT22;8313;49.894;8.084;2024-03-02T14:16:19;13.70;99.90
16408;DHT22;8313;49.894;8.084;2024-03-02T14:18:44;13.80;99.90
16408;DHT22;8313;49.894;8.084;2024-03-02T14:21:10;13.70;99.90
16408;DHT22;8313;49.894;8.084;2024-03-02T14:23:36;13.70;99.90
16408;DHT22;8313;49.894;8.084;2024-03-02T14:26:01;13.60;99.90
16408;DHT22;8313;49.894;8.084;2024-03-02T14:28:27;13.70;99.90
16408;DHT22;8313;49.894;8.084;2024-03-02T14:30:53;13.80;99.90
16408;DHT22;8313;49.894;8.084;2024-03-02T14:33:20;13.80;99.90
16408;DHT22;8313;49.894;8.084;2024-03-02T14:35:46;13.80;99.90
16408;DHT22;8313;49.894;8.084;2024-03-02T14:38:12;14.10;99.90
16408;DHT22;8313;49.894;8.084;2024-03-02T14:40:38;14.20;99.90
16408;DHT22;8313;49.894;8.084;2024-03-02T14:43:04;14.40;99.90
16408;DHT22;8313;49.894;8.084;2024-03-02T14:45:29;14.10;99.90
16408;DHT22;8313;49.894;8.084;2024-03-02T14:47:55;14.00;99.90
16408;DHT22;8313;49.894;8.084;2024-03-02T14:50:21;14.00;99.90
16408;DHT22;8313;49.894;8.084;2024-03-02T14:52:47;13.90;99.90
16408;DHT22;8313;49.894;8.084;2024-03-02T14:55:13;13.90;99.90
16408;DHT22;8313;49.894;8.084;2024-03-02T14:57:39;13.90;99.90
16408;DHT22;8313;49.894;8.084;2024-03-02T15:00:05;13.90;99.90
16408;DHT22;8313;49.894;8.084;2024-03-02T15:02:33;13.70;99.90
16408;DHT22;8313;49.894;8.084;2024-03-02T15:04:59;13.80;99.90
16408;DHT22;8313;49.894;8.084;2024-03-02T15:07:25;13.80;99.90
16408;DHT22;8313;49.894;8.084;2024-03-02T15:09:51;13.70;99.90
16408;DHT22;8313;49.894;8.084;2024-03-02T15:12:17;13.50;99.90
16408;DHT22;8313;49.894;8.084;2024-03-02T15:14:43;13.50;99.90
16408;DHT22;8313;49.894;8.084;2024-03-02T15:17:15;13.50;99.90
16408;DHT22;8313;49.894;8.084;2024-03-02T15:19:45;13.50;99.90
16408;DHT22;8313;49.894;8.084;2024-03-02T15:22:11;13.40;99.90
16408;DHT22;8313;49.894;8.084;2024-03-02T15:24:38;13.30;99.90
16408;DHT22;8313;49.894;8.084;2024-03-02T15:27:04;13.40;99.90
16408;DHT22;8313;49.894;8.084;2024-03-02T15:29:31;13.40;99.90
16408;DHT22;8313;49.894;8.084;2024-03-02T15:31:57;13.50;99.90
16408;DHT22;8313;49.894;8.084;2024-03-02T15:34:24;13.50;99.90
16408;DHT22;8313;49.894;8.084;2024-03-02T15:36:50;13.50;99.90
16408;DHT22;8313;49.894;8.084;2024-03-02T15:39:16;13.40;99.90
16408;DHT22;8313;49.894;8.084;2024-03-02T15:41:44;13.40;99.90
16408;DHT22;8313;49.894;8.084;2024-03-02T15:44:10;13.40;99.90
16408;DHT22;8313;49.894;8.084;2024-03-02T15:46:36;13.40;99.90
16408;DHT22;8313;49.894;8.084;2024-03-02T15:49:02;13.40;99.90
16408;DHT22;8313;49.894;8.084;2024-03-02T15:51:28;13.40;99.90
16408;DHT22;8313;49.894;8.084;2024-03-02T15:53:54;13.40;99.90
16408;DHT22;8313;49.894;8.084;2024-03-02T15:56:20;13.40;99.90
16408;DHT22;8313;49.894;8.084;2024-03-02T15:58:46;13.40;99.90
16408;DHT22;8313;49.894;8.084;2024-03-02T16:01:13;13.40;99.90
16408;DHT22;8313;49.894;8.084;2024-03-02T16:03:38;13.40;99.90
16408;DHT22;8313;49.894;8.084;2024-03-02T16:06:04;13.30;99.90
16408;DHT22;8313;49.894;8.084;2024-03-02T16:08:30;13.30;99.90
16408;DHT22;8313;49.894;8.084;2024-03-02T16:10:56;13.30;99.90
16408;DHT22;8313;49.894;8.084;2024-03-02T16:13:23;13.30;99.90